Panagiotis Mandalos

Recruteur en chef - PAOK
6 Août 2028
Dimanche
Processus

Personnalité

Adaptabilité (12) Ambition (14) Controverse (12) Loyauté (5) Pression (8) Professionnalisme (4) Sportivité (3) Tempérament (19)

Profil

Style d'entraînement Démocratique
Diplôme National B
Détermination 6
Gestion des joueurs 10
Motivation 10
Discipline 6
Satisfaction professionnelle
100%
Fatigue
0%
Rôle Recruteur en chef
Salaire 62.6K p/s
Contrat 14.03.2030

Performance

Comportement Bon
Efficacité de l'entraînement
36%
Développement des joueurs
60%
Prévention des blessures
40%
Mise en place tactique
30%

Événements récents

A évalué un joueur maintenant
A participé à une réunion de recrutement maintenant
A recommandé une cible de transfert maintenant
A recommandé une cible de transfert maintenant
A participé à une réunion de recrutement maintenant
A recommandé une cible de transfert maintenant
A recommandé une cible de transfert 7j
A évalué un joueur 7j

Suivi en cours

341
Joueur Club Statut Capacité Confiance Observé Dernière observation Dernier vote
Ezra Mayers West Ham United Actif 128 / 121 40% 2 31.07.2028 -
Mats Egbring Heerenveen Actif 104 / 132 40% 1 31.07.2028 -
Celías Ingenthron Platense Actif 110 / 115 40% 2 29.07.2028 -
Máximo Munarriz San Telmo Actif 101 / 93 40% 2 29.07.2028 -
Matías Pandiella Konyaspor Actif 99 / 117 40% 1 29.07.2028 -
Jorge Salinas Racing Santander Actif 137 / 155 40% 5 20.07.2028 -
Adnan Nainggolan KV Oostende Actif 109 / 113 40% 5 20.07.2028 -
Tobías Ramírez River Plate Actif 133 / 126 40% 3 20.07.2028 -
Tyler Fletcher Rotherham United Actif 108 / 127 40% 4 18.07.2028 -
Itumeleng Jali Spezia Actif 111 / 110 40% 2 18.07.2028 -
Jan Bürger Northampton Town Actif 118 / 137 40% 1 18.07.2028 -
Christos Mouzakitis Hull City Actif 136 / 135 40% 5 17.07.2028 -
Miguel Figueiredo Benfica Actif 126 / 130 40% 1 17.07.2028 -
Bernardo Lima Porto Actif 111 / 111 40% 2 11.07.2028 -
Noa Mikić Imotski Actif 113 / 131 40% 1 11.07.2028 -
Reggie Walsh Chelsea Actif 121 / 142 40% 1 11.07.2028 -
Trey Nyoni Rotherham United Actif 145 / 134 40% 10 10.07.2028 -
Cheveyo Tsawa Club Brugge Actif 122 / 149 40% 2 10.07.2028 -
Francisco Meixedo Feirense Actif 120 / 108 40% 1 04.07.2028 -
Marios Vichos Levadiakos Actif 125 / 138 72% 1 26.06.2028 Approuver
João Simões Sporting CP Actif 138 / 129 40% 1 19.06.2028 -
Josh Keeley Luton Town Actif 136 / 139 40% 1 14.06.2028 -
Filippo Manfrin Arzignano Actif 111 / 123 40% 1 14.06.2028 -
Valerio Boffelli Cavese Actif 117 / 110 40% 1 14.06.2028 -
Pape Diong Westerlo Actif 122 / 142 40% 7 07.06.2028 -
Yvann Maçon AEL Larisa Actif 134 / 118 72% 1 07.06.2028 Approuver
Buba Sangaré Elche Actif 139 / 136 40% 1 07.06.2028 -
Daniel Banjaqui Benfica Actif 116 / 124 40% 8 06.06.2028 -
Luis Otávio Orlando City Actif 122 / 114 40% 1 06.06.2028 -
Hamza Mendyl Volos NPS Perdu 120 / 113 72% 1 03.06.2028 Approuver
Cesare Galeotti Trapani Perdu 121 / 127 40% 1 03.06.2028 -
Leo Román Deportivo La Coruña Actif 148 / 168 40% 1 03.06.2028 -
Filip Marschall Stevenage Actif 124 / 128 40% 1 03.06.2028 -
Lucas Høgsberg RC Strasbourg Actif 147 / 134 40% 5 02.06.2028 -
Lamine Bèye Portimonense Actif 107 / 117 40% 2 02.06.2028 -
Alejandro Iturbe Elche Actif 141 / 154 40% 1 01.06.2028 -
Jordan Amissah Burton Albion Perdu 121 / 117 40% 1 01.06.2028 -
Radek Vítek Middlesbrough Actif 143 / 161 40% 1 01.06.2028 -
Sebastiano Esposito Cagliari Actif 151 / 142 40% 1 31.05.2028 -
Jamie Donley West Bromwich Albion Actif 128 / 115 40% 1 31.05.2028 -
Sebastian Rodriguez Houston Dynamo Actif 106 / 122 40% 1 30.05.2028 -
Andrija Bulatović Chamois Niortais Actif 125 / 120 40% 5 29.05.2028 -
Kwesi Sorotu Badori Berekum Chelsea Actif 106 / 113 40% 2 29.05.2028 -
Honest Ahanor Atalanta Actif 139 / 143 40% 10 28.05.2028 -
Jorthy Mokio ADO Den Haag Actif 130 / 124 40% 6 28.05.2028 -
Noahkai Banks FC Augsburg Actif 146 / 130 40% 1 27.05.2028 -
Ayden Heaven Portsmouth Actif 138 / 146 40% 8 26.05.2028 -
Andrea Cogoni Cosenza Actif 105 / 103 40% 3 26.05.2028 -
Denys Smetana Rukh Actif 93 / 116 40% 1 24.05.2028 -
Josh Nichols Oldham Athletic Actif 119 / 127 40% 7 21.05.2028 -
Kelian Le Pironnec Mirandés Actif 90 / 95 40% 1 21.05.2028 -
Bence Szakos Aris Actif 85 / 88 40% 8 20.05.2028 -
Musa Danjuma Umraniyespor Actif 86 / 86 40% 4 20.05.2028 -
Kiani Inge Groningen Actif 117 / 114 40% 2 19.05.2028 -
Federico Matarán Giana Erminio Actif 103 / 99 40% 3 18.05.2028 -
Thijs Kraaijeveld USM Alger Actif 128 / 116 40% 2 18.05.2028 -
Amine Boukamir Charleroi Actif 99 / 107 40% 2 18.05.2028 -
Joel Ezra Enyimba Actif 87 / 96 40% 2 17.05.2028 -
Sebastián Arancibia Antofagasta Actif 111 / 107 40% 1 14.05.2028 -
Riquelme Thompson-Jones Accrington Stanley Actif 104 / 130 40% 6 11.05.2028 -
Andrey Ivlev Nizhniy Novgorod Actif 119 / 124 40% 1 11.05.2028 -
Konta Ismaily Actif 94 / 110 40% 3 07.05.2028 -
Gideon Manaseh Ikorodu City Actif 90 / 82 40% 1 07.05.2028 -
Tobiáš Pališčák Zlin Actif 103 / 114 40% 6 06.05.2028 -
Olivier Leroux Mouscron Actif 103 / 95 40% 2 05.05.2028 -
Mohammed El Âdfaoui Westerlo Actif 113 / 118 40% 1 28.04.2028 -
Yoram Zague Paris Saint-Germain Actif 133 / 146 40% 6 21.04.2028 -
Josh Acheampong Everton Actif 143 / 153 40% 5 19.04.2028 -
Augusto Bando Ascoli Actif 118 / 105 40% 1 10.04.2028 -
Amir Mohammad Razzaghinia Esteghlal Actif 116 / 136 40% 1 01.04.2028 -
Matias Siltanen Malmo FF Actif 124 / 128 40% 3 31.03.2028 -
Olivier Mambwa Young Boys Actif 104 / 127 40% 2 29.03.2028 -
Izan Merino Málaga Actif 127 / 119 40% 2 24.03.2028 -
Andrea Bertoncini Triestina Actif 91 / 107 40% 1 19.03.2028 -
Charlie Gray Fleetwood Town Actif 90 / 99 40% 2 07.02.2028 -
Felipe Faúndez O'Higgins Actif 111 / 121 40% 5 07.02.2028 -
Matvey Bardachev Zenit Actif 106 / 107 40% 1 31.01.2028 -
Manuel Mónaco Sarmiento Actif 117 / 112 40% 5 25.01.2028 -
Gabriel Pec Cruzeiro Actif 139 / 143 40% 6 25.01.2028 -
Talles Magno New York City Actif 125 / 125 40% 9 24.01.2028 -
Ben Gannon Doak Charlton Athletic Actif 150 / 163 40% 4 24.01.2028 -
Rodrigo Nestor Bahia Actif 135 / 125 40% 1 24.01.2028 -
Emerson Batalla Atletico Bucaramanga Actif 120 / 114 40% 10 18.01.2028 -
Lucas Assadi AIK Actif 134 / 141 40% 8 18.01.2028 -
Bénie Traoré New York City Actif 133 / 115 40% 5 17.01.2028 -
Liel Abada Inter Miami CF Actif 134 / 149 40% 5 17.01.2028 -
Victor Lind Hammarby Actif 135 / 132 40% 3 17.01.2028 -
Benjamín Rollheiser Santos Actif 136 / 129 40% 1 11.01.2028 -
Alex Luna Instituto Actif 140 / 136 40% 7 09.01.2028 -
Geny Sporting CP Actif 151 / 144 40% 1 09.01.2028 -
Victor Hernandez Santa Fe Actif 119 / 139 40% 7 06.01.2028 -
Samuel Velásquez Atletico Nacional Actif 126 / 125 40% 7 06.01.2028 -
Eric Ramires Bragantino Actif 141 / 147 40% 3 06.01.2028 -
Sayfallah Ltaief O'Higgins Actif 117 / 106 40% 9 05.01.2028 -
Pedro de la Vega Columbus Crew Actif 133 / 138 40% 8 05.01.2028 -
Quinn Sullivan Philadelphia Union Actif 120 / 138 40% 4 03.01.2028 -
Caleb Yirenkyi Coventry City Actif 150 / 136 40% 3 03.01.2028 -
Santiago Montiel Independiente Actif 137 / 143 40% 6 03.01.2028 -
Telasco Segovia Inter Miami CF Actif 145 / 143 40% 6 01.01.2028 -
Antonio Galeano Remo Stars Actif 137 / 112 40% 8 01.01.2028 -
Bitello Universidad de Chile Actif 135 / 135 68% 1 01.01.2028 Approuver
Christian Kouamé Atlético Mineiro Actif 126 / 120 40% 2 31.12.2027 -
Henry Mosquera Bragantino Actif 128 / 119 40% 2 31.12.2027 -
Marino Hinestroza Bahia Actif 124 / 146 40% 4 29.12.2027 -
David Da Costa Portland Timbers Actif 141 / 135 40% 4 23.12.2027 -
Caio Vidal Deportivo Pereira Actif 125 / 139 40% 6 23.12.2027 -
Antony Portland Timbers Actif 145 / 128 40% 7 22.12.2027 -
Franco Zapiola Platense Actif 123 / 137 40% 1 22.12.2027 -
Alpha Touré FC Metz Actif 112 / 135 40% 1 22.12.2027 -
Esquerdinha Notts County Actif 123 / 121 40% 1 21.12.2027 -
Camilo Martinez Cortulua Actif 137 / 141 40% 7 18.12.2027 -
Andrés Gómez Vasco da Gama Actif 148 / 142 40% 3 17.12.2027 -
Alexis Cuello San Lorenzo Actif 124 / 110 40% 1 17.12.2027 -
Luca Langoni Columbus Crew Actif 132 / 125 40% 5 16.12.2027 -
Colin Guske Orlando City Actif 85 / 105 40% 3 14.12.2027 -
Nicolas Sport Recife Actif 109 / 93 40% 2 12.12.2027 -
Ignacio Aliseda Cerro Porteno Actif 120 / 130 40% 3 10.12.2027 -
Santiago Rodríguez Columbus Crew Actif 125 / 115 40% 4 08.12.2027 -
Edvard Pettersen Sandefjord Actif 111 / 112 40% 3 30.11.2027 -
Erick Pulga Bahia Actif 126 / 132 40% 2 30.11.2027 -
Maurício Palmeiras Actif 135 / 117 40% 1 28.11.2027 -
Jon Esenga IF Elfsborg Actif 97 / 112 40% 1 24.11.2027 -
Hugo Rojas Instituto Actif 95 / 116 40% 1 22.11.2027 -
Aarón Molinas Defensa y Justicia Actif 131 / 111 40% 2 18.11.2027 -
Bruno Leyes Godoy Cruz Actif 122 / 133 40% 2 17.11.2027 -
Juan Bisanz Huracán Actif 132 / 120 40% 5 16.11.2027 -
Daniel Barrea Godoy Cruz Actif 113 / 121 40% 5 15.11.2027 -
Oscar Steinke Brånby Hammarby Actif 100 / 100 40% 3 10.11.2027 -
Diego Luna Real Salt Lake Actif 135 / 146 40% 6 08.11.2027 -
Azizbek To'lqinbekov Bunyodkor Actif 109 / 89 40% 1 08.11.2027 -
Kevin Zenón Boca Juniors Actif 129 / 135 40% 3 07.11.2027 -
Johan Martínez Deportivo Cali Actif 116 / 120 40% 3 02.11.2027 -
Noel Sernelius IFK Norrkoping Actif 101 / 103 40% 1 30.10.2027 -
Alejandro Piedrahita Deportivo Pereira Actif 131 / 138 40% 2 28.10.2027 -
Nahuel Leivas Montevideo City Torque Actif 113 / 116 40% 2 26.10.2027 -
Malick Yalcouyé Brighton Actif 133 / 121 40% 1 26.10.2027 -
Mohamed Moussa Koïta Mathare United Actif 100 / 82 40% 2 16.10.2027 -
Björn Hedlöf Helsingborg Actif 98 / 96 40% 1 16.10.2027 -
Vince Osuji Stabaek Actif 102 / 119 40% 1 08.10.2027 -
Olaniyi Saheed Kwara United Actif 90 / 87 40% 1 08.10.2027 -
Facundo Balatti Penarol Actif 100 / 96 40% 2 04.10.2027 -
Bruno Larregui Juventud Actif 112 / 103 40% 3 24.09.2027 -
Kein Sato FC Tokyo Actif 133 / 124 40% 1 24.09.2027 -
Gadiel Paoli River Plate Actif 93 / 110 40% 3 23.09.2027 -
Santiago Toloza O'Higgins Actif 120 / 112 40% 1 23.09.2027 -
Jonny Shore New York City Actif 101 / 114 40% 1 21.09.2027 -
Gabriel Pirani San Diego Football Club Actif 134 / 140 40% 3 19.09.2027 -
Alexander Aravena Portland Timbers Actif 134 / 145 40% 2 18.09.2027 -
Paxten Aaronson Colorado Rapids Actif 143 / 123 40% 3 18.09.2027 -
Sebastián Navarro Atletico Nacional Actif 113 / 127 40% 1 12.09.2027 -
Agustín Medina Lanús Actif 122 / 145 40% 2 11.09.2027 -
Adrian Skogmar Malmo FF Actif 110 / 131 40% 1 11.09.2027 -
Yiandro Raap Ilves Actif 97 / 98 40% 1 08.09.2027 -
Giorgi Kvernadze Frosinone Actif 138 / 141 40% 3 17.08.2027 -
Edwin Mosquera Santa Fe Actif 113 / 108 40% 1 15.08.2027 -
Jordan Zemura Udinese Actif 130 / 138 40% 1 15.08.2027 -
Lewis Ferguson Bologna Actif 153 / 160 40% 4 14.08.2027 -
Pedro Vian Seewald Dolomiti Bellunesi Actif 91 / 100 40% 4 14.08.2027 -
Mbekezeli Mbokazi Chicago Fire Actif 129 / 115 40% 1 14.08.2027 -
Ibrahim Bayesh Al Dhafra Actif 125 / 112 40% 1 11.08.2027 -
Stiven Shpendi Empoli Actif 131 / 120 40% 3 10.08.2027 -
Toby Collyer West Bromwich Albion Actif 142 / 134 40% 5 09.08.2027 -
Tyrese Campbell Sheffield United Actif 132 / 136 40% 4 09.08.2027 -
Rocco Vata Watford Actif 116 / 140 40% 4 09.08.2027 -
Oliver Skipp Leicester City Actif 135 / 130 40% 3 08.08.2027 -
Jack McGlynn Stoke City Actif 143 / 151 40% 3 08.08.2027 -
Max Johnston Derby County Actif 142 / 139 40% 11 06.08.2027 -
Othmane Maamma Watford Actif 135 / 141 40% 2 06.08.2027 -
Ricardo Horta Braga Actif 160 / 157 40% 3 06.08.2027 -
Zane Albarus Shrewsbury Town Actif 101 / 117 40% 2 06.08.2027 -
Bertuğ Yıldırım Basaksehir Actif 139 / 145 40% 1 06.08.2027 -
Alex Lowry Wycombe Wanderers Actif 119 / 118 40% 3 04.08.2027 -
Ali Ahmed Norwich City Actif 126 / 142 40% 2 04.08.2027 -
Tommaso Cecotti Carpi Actif 92 / 89 40% 1 01.08.2027 -
Sascha Britschgi AC Milan Actif 116 / 135 40% 3 31.07.2027 -
Yoane Wissa Newcastle United Actif 155 / 145 40% 2 31.07.2027 -
Willem Geubbels Lecce Actif 139 / 118 40% 1 29.07.2027 -
Rafael Navarro Famalicao Actif 141 / 143 40% 1 29.07.2027 -
Mateus Mané Burnley Actif 141 / 145 40% 1 29.07.2027 -
Amin Sarr Hellas Verona Actif 125 / 127 40% 1 28.07.2027 -
Sam Greenwood Bristol City Actif 133 / 137 40% 4 26.07.2027 -
Million Manhoef Stoke City Actif 138 / 136 40% 1 26.07.2027 -
Jackson Muleka Konyaspor Actif 129 / 140 40% 1 26.07.2027 -
Nicolas Madsen Queens Park Rangers Actif 125 / 138 40% 2 23.07.2027 -
Jack Rudoni Coventry City Actif 137 / 153 40% 1 23.07.2027 -
Max Bird Birmingham Actif 128 / 144 40% 7 22.07.2027 -
Malik Mothersille Stockport County Actif 110 / 115 40% 2 22.07.2027 -
Tomáš Rigo Stoke City Actif 132 / 124 40% 3 20.07.2027 -
Aidan Morris Middlesbrough Actif 141 / 147 40% 7 17.07.2027 -
Jenson Jones Walsall Actif 92 / 103 40% 3 16.07.2027 -
Richard Koné Queens Park Rangers Actif 123 / 119 40% 1 16.07.2027 -
Gonçalo Oliveira Benfica Actif 114 / 126 40% 1 16.07.2027 -
Welington Southampton Actif 129 / 145 40% 12 13.07.2027 -
Eliás Montiel Borussia Dortmund Actif 141 / 155 40% 3 13.07.2027 -
Patson Daka Leicester City Actif 121 / 145 40% 2 12.07.2027 -
Keinan Davis Udinese Actif 144 / 138 40% 1 07.07.2027 -
Aune Heggebø West Bromwich Albion Actif 129 / 115 40% 3 06.07.2027 -
Sonny Carey Charlton Athletic Actif 116 / 136 40% 1 06.07.2027 -
Alexandre Brito Leiria Actif 96 / 116 40% 1 01.07.2027 -
Elia Caprile Cagliari Actif 154 / 135 40% 1 28.06.2027 -
Nathan Bishop AFC Wimbledon Actif 113 / 113 40% 1 28.06.2027 -
Simón Pinto Huachipato Actif 108 / 96 40% 2 25.06.2027 -
Esteban de Lima Tacuarembo Actif 90 / 77 40% 1 25.06.2027 -
Daniel Vernattus Metalist Actif 97 / 97 40% 1 24.06.2027 -
Tiago Freitas Benfica Actif 114 / 116 40% 1 24.06.2027 -
Vanja Dragojević Partizan Actif 111 / 127 40% 1 22.06.2027 -
Lukas Nmecha Leeds United Actif 130 / 124 40% 1 14.06.2027 -
Juan Bezerra Zamalek Actif 123 / 132 40% 3 07.06.2027 -
Romelle Donovan Brentford Actif 122 / 124 40% 1 06.06.2027 -
Bongani Zungu Ajax Cape Town Actif 130 / 110 40% 3 05.06.2027 -
Shea Charles Southampton Actif 143 / 141 40% 7 05.06.2027 -
Jacques Ekomié Wrexham Actif 121 / 139 40% 6 04.06.2027 -
Alfie Devine Preston Actif 125 / 129 40% 1 02.06.2027 -
Azor Matusiwa Ipswich Town Actif 128 / 144 40% 8 30.05.2027 -
Tariq Lamptey Queens Park Rangers Actif 136 / 147 40% 3 29.05.2027 -
Jordan Beyer Burnley Actif 143 / 138 40% 2 28.05.2027 -
Alfie Gilchrist West Bromwich Albion Actif 127 / 124 40% 1 27.05.2027 -
Rodrigo Muniz Fulham Actif 130 / 152 40% 1 25.05.2027 -
Tyrese Shade Burton Albion Actif 108 / 100 40% 1 25.05.2027 -
Luke McNally Bristol City Actif 139 / 120 40% 7 23.05.2027 -
Ronnie Edwards Queens Park Rangers Actif 122 / 116 40% 4 23.05.2027 -
Fábio Tavares Burton Albion Actif 101 / 114 40% 3 23.05.2027 -
Mees Rijks Bristol Rovers Actif 117 / 122 40% 1 23.05.2027 -
Brooke Norton-Cuffy Hull City Actif 146 / 153 40% 3 21.05.2027 -
André-Franck Zambo Anguissa Napoli Actif 158 / 143 40% 3 21.05.2027 -
Harrison Burrows Sheffield United Actif 121 / 113 40% 2 21.05.2027 -
Jacob Greaves Ipswich Town Actif 148 / 136 40% 7 20.05.2027 -
Gustavo Hamer Sheffield United Actif 127 / 133 40% 4 18.05.2027 -
Dale Taylor Blackpool Actif 106 / 105 40% 1 18.05.2027 -
George Brown Sheffield Wednesday Actif 103 / 110 40% 1 17.05.2027 -
Tomáš Souček West Ham United Actif 131 / 129 40% 6 14.05.2027 -
Lorent Tolaj Plymouth Argyle Actif 110 / 113 40% 2 14.05.2027 -
Stephen Amankona Aduana Stars Actif 89 / 76 40% 1 14.05.2027 -
Ben Nelson Leicester City Actif 135 / 116 40% 1 14.05.2027 -
Dara O'Shea Ipswich Town Actif 135 / 143 40% 8 09.05.2027 -
Harry Clarke Preston Actif 127 / 119 40% 3 07.05.2027 -
Adam Randell Bristol City Actif 130 / 146 40% 4 07.05.2027 -
Toti Wolverhampton Actif 129 / 131 40% 4 04.05.2027 -
Japhet Tanganga Sheffield United Actif 137 / 130 40% 2 03.05.2027 -
Michael Baidoo Plymouth Argyle Actif 132 / 134 40% 1 03.05.2027 -
Elmin Rastoder Panathinaikos Actif 123 / 136 40% 2 01.05.2027 -
Hidemasa Morita Hull City Actif 138 / 151 40% 10 29.04.2027 -
Bosun Lawal Stoke City Actif 118 / 125 40% 5 29.04.2027 -
Andre Brooks Sheffield United Actif 127 / 132 40% 1 27.04.2027 -
Mitchel Bakker Modena Actif 136 / 112 40% 1 27.04.2027 -
Kyle Walker-Peters West Ham United Actif 142 / 127 40% 2 26.04.2027 -
Kristoffer Lund Birmingham Actif 120 / 110 40% 1 24.04.2027 -
Enrico Delprato Parma Actif 134 / 123 40% 3 23.04.2027 -
Derry Murkin Derby County Actif 119 / 118 40% 3 22.04.2027 -
Lewis O'Brien Wrexham Actif 127 / 136 40% 1 21.04.2027 -
Dennis Cirkin Queens Park Rangers Actif 119 / 128 40% 6 20.04.2027 -
Alessio Romagnoli Lazio Actif 138 / 153 40% 1 20.04.2027 -
Kenny Tete Fulham Actif 150 / 146 40% 9 19.04.2027 -
Florentino Luís Ipswich Town Actif 140 / 150 40% 8 17.04.2027 -
Habib Diarra Sunderland Actif 146 / 156 40% 4 17.04.2027 -
Lucas Da Cunha Como Actif 144 / 136 40% 2 14.04.2027 -
Rody Junior Effaghe Aris Actif 108 / 123 40% 2 07.04.2027 -
Matt Clarke Derby County Actif 119 / 124 40% 3 07.04.2027 -
Majid Moharrami Rah Ahan Actif 103 / 125 40% 1 07.04.2027 -
Joe Gelhardt Hull City Actif 131 / 121 40% 2 05.04.2027 -
Jonathan Varane Queens Park Rangers Actif 128 / 121 40% 1 04.04.2027 -
Sam Bell Bristol City Actif 130 / 128 40% 1 03.04.2027 -
Mohamed-Ali Cho Hull City Actif 127 / 138 40% 2 30.03.2027 -
Mohammad Hosseini Malavan Actif 126 / 111 40% 1 30.03.2027 -
Alfie Doughty Millwall Actif 119 / 114 40% 5 25.03.2027 -
Aidomo Emakhu Oxford United Actif 113 / 122 40% 1 19.03.2027 -
Giorgos Kyriakopoulos Panathinaikos Actif 135 / 122 40% 3 16.03.2027 -
Callum Brittain Middlesbrough Actif 133 / 128 40% 1 13.03.2027 -
Álex Centelles Levski Actif 134 / 124 40% 1 03.03.2027 -
Davide Calabria Panathinaikos Actif 148 / 146 40% 4 27.02.2027 -
Gustavo Mantuan Zenit Actif 132 / 141 40% 3 26.02.2027 -
Etiosa Ighodaro Kaizer Chiefs Actif 108 / 128 40% 2 26.02.2027 -
Álvaro Medrán Al-Ettifaq Actif 119 / 122 40% 1 26.02.2027 -
Azzedine Ounahi Panathinaikos Actif 143 / 140 40% 7 24.02.2027 -
Lloyd Jones Charlton Athletic Actif 118 / 143 40% 2 23.02.2027 -
Marezi Portsmouth Actif 131 / 108 40% 1 20.02.2027 -
Christian Nørgaard Everton Actif 138 / 158 40% 2 19.02.2027 -
Will Hughes Bloemfontein Celtic Actif 127 / 115 40% 7 14.02.2027 -
Kings Kangwa Panathinaikos Actif 138 / 139 40% 5 10.02.2027 -
Nicolás Andereggen Ethnikos Achnas Actif 105 / 117 40% 1 10.02.2027 -
Tyreece Campbell Charlton Athletic Actif 121 / 107 40% 1 07.02.2027 -
Brayan Gil Baltika Actif 123 / 123 40% 1 05.02.2027 -
Milan van Ewijk Coventry City Actif 123 / 119 40% 2 25.01.2027 -
Christos Giousis Nea Salamis Actif 110 / 121 40% 1 18.01.2027 -
Stav Toriel Hapoel Tel Aviv Actif 138 / 139 40% 1 18.01.2027 -
Enzo Cabrera AE Kition Actif 120 / 98 40% 1 04.01.2027 -
Luiz Henrique AS Roma Actif 142 / 143 68% 1 01.01.2027 Approuver
Stanislav Agkatsev Brentford Actif 132 / 133 66% 1 01.01.2027 Approuver
Edu Expósito Espanyol Actif 150 / 145 40% 12 30.12.2026 -
Anel Ahmedhodžić Burnley Actif 145 / 123 40% 1 28.12.2026 -
Wendel Zenit Actif 137 / 150 40% 5 25.12.2026 -
Matthew Targett Hull City Actif 121 / 137 40% 1 24.12.2026 -
Alex Robertson Cardiff City Actif 127 / 107 40% 1 21.12.2026 -
Joachim Andersen Fulham Actif 141 / 145 40% 2 15.12.2026 -
Evander Wolverhampton Actif 139 / 153 40% 1 12.12.2026 -
Mamadou Sangaré Brentford Actif 148 / 132 40% 1 09.12.2026 -
Ben Sheaf Wrexham Actif 122 / 126 40% 1 09.12.2026 -
Facundo Pellistri Panathinaikos Actif 132 / 125 40% 1 05.12.2026 -
Alexandr Chernikov Krasnodar Actif 133 / 124 40% 3 01.12.2026 -
Luis Chávez Dinamo Moscow Actif 131 / 124 40% 3 29.11.2026 -
Tobias Gulliksen Rapid Wien Actif 125 / 142 40% 1 29.11.2026 -
Dion Lopy Al-Ittihad Actif 133 / 130 40% 1 27.11.2026 -
Armstrong Oko-Flex Levski Actif 117 / 125 40% 1 27.11.2026 -
Lukáš Červ Viktoria Plzen Actif 137 / 128 40% 3 26.11.2026 -
Tormena Krasnodar Actif 134 / 130 40% 3 24.11.2026 -
Odin Bjørtuft Bodo/Glimt Actif 130 / 124 40% 5 23.11.2026 -
Otávio Spartak Moscow Actif 142 / 147 40% 2 22.11.2026 -
Mohamed Camara Maccabi Tel Aviv Actif 135 / 140 40% 2 21.11.2026 -
Peter Federico Gornik Zabrze Actif 130 / 121 40% 1 19.11.2026 -
Diego Gómez Brighton Actif 152 / 137 40% 3 16.11.2026 -
Gedson Fernandes Spartak Moscow Actif 131 / 131 40% 4 14.11.2026 -
Yacine Adli Al-Shabab Actif 146 / 139 40% 3 13.11.2026 -
Sergey Pinyaev Lokomotiv Moscow Actif 133 / 119 40% 1 13.11.2026 -
Denis Vavro Viktoria Plzen Actif 132 / 127 40% 2 11.11.2026 -
Sota Kitano Red Bull Salzburg Actif 126 / 108 40% 2 09.11.2026 -
Mohau Nkota Al-Ettifaq Actif 120 / 143 40% 1 09.11.2026 -
Ferland Mendy Real Madrid Actif 146 / 131 40% 5 06.11.2026 -
Michal Sadílek Slavia Prague Actif 124 / 142 40% 2 05.11.2026 -
Moisés CSKA Moscow Actif 125 / 126 40% 4 19.10.2026 -
Eduard Löwen San Jose Earthquakes Actif 126 / 125 40% 3 17.10.2026 -
Agustín Anello Philadelphia Union Actif 131 / 124 40% 5 13.10.2026 -
Pedro Henrique Shakhtar Actif 129 / 124 40% 2 13.10.2026 -
Daniel Karlsbakk Sarpsborg 08 Actif 122 / 129 40% 1 10.10.2026 -
Dominik Marczuk Real Salt Lake Actif 117 / 112 40% 1 10.10.2026 -
Kenji Cabrera Vancouver Whitecaps Actif 116 / 103 40% 1 10.10.2026 -
Yves Bissouma Tottenham Actif 145 / 141 40% 1 07.10.2026 -
Teboho Mokoena Mamelodi Sundowns Actif 122 / 128 40% 3 02.10.2026 -
Miles Robinson FC Cincinnati Actif 139 / 123 40% 2 29.09.2026 -
Amin Boudri Los Angeles Football Club Actif 120 / 110 40% 1 29.09.2026 -
Douglas Augusto Krasnodar Actif 124 / 138 40% 2 25.09.2026 -
Jaime Seoane Al-Faisaly Actif 142 / 153 40% 1 25.09.2026 -
Jimer Fory Portland Timbers Actif 113 / 133 40% 1 25.09.2026 -
Theo Corbeanu Toronto FC Actif 118 / 118 40% 2 22.09.2026 -
Jon Gorenc Stankovič Sturm Graz Actif 129 / 147 40% 1 19.09.2026 -
Juan David Cabal Juventus Actif 144 / 124 40% 1 15.09.2026 -
Owen Beck Liverpool Actif 128 / 118 40% 2 10.09.2026 -
Nico Elvedi Leeds United Actif 125 / 135 40% 1 03.09.2026 -
Manu Morlanes Mallorca Actif 125 / 140 40% 1 02.09.2026 -
Crysencio Summerville Al-Hilal Actif 146 / 152 40% 1 29.08.2026 -
Griffin Yow New England Revolution Actif 111 / 108 40% 1 26.08.2026 -
Oleksandr Zubkov AEK Actif 133 / 121 40% 1 17.08.2026 Plus d'infos